createdAt,value
2023-05-18T00:00:16.314Z,3.50
2023-05-18T00:02:44.504Z,2.22
2023-05-18T00:05:14.038Z,2.17
2023-05-18T00:07:43.862Z,2.83
2023-05-18T00:10:13.822Z,2.00
2023-05-18T00:12:42.000Z,3.45
2023-05-18T00:15:11.484Z,2.55
2023-05-18T00:17:39.674Z,2.97
2023-05-18T00:20:10.370Z,2.90
2023-05-18T00:22:42.733Z,3.70
2023-05-18T00:25:11.114Z,2.40
2023-05-18T00:27:39.209Z,3.00
2023-05-18T00:30:08.835Z,2.20
2023-05-18T00:32:36.990Z,3.80
2023-05-18T00:35:05.959Z,1.48
2023-05-18T00:37:34.095Z,2.67
2023-05-18T00:40:06.612Z,2.45
2023-05-18T00:42:34.828Z,2.00
2023-05-18T00:45:02.964Z,2.47
2023-05-18T00:47:31.116Z,1.88
2023-05-18T00:49:59.312Z,1.67
2023-05-18T00:52:28.290Z,2.80
2023-05-18T00:54:58.380Z,2.03
2023-05-18T00:57:28.737Z,2.15
2023-05-18T00:59:57.817Z,1.95
2023-05-18T01:02:30.245Z,1.33
2023-05-18T01:05:00.671Z,1.95
2023-05-18T01:07:28.867Z,2.20
2023-05-18T01:09:57.266Z,2.30
2023-05-18T01:12:33.962Z,2.85
2023-05-18T01:15:09.223Z,2.22
2023-05-18T01:17:45.200Z,2.85
2023-05-18T01:20:20.442Z,2.30
2023-05-18T01:23:01.646Z,2.78
2023-05-18T01:25:36.725Z,1.83
2023-05-18T01:28:10.551Z,2.53
2023-05-18T01:30:42.353Z,2.92
2023-05-18T01:33:10.866Z,2.38
2023-05-18T01:35:41.694Z,1.80
2023-05-18T01:38:09.836Z,1.60
2023-05-18T01:40:45.041Z,2.13
2023-05-18T01:43:19.390Z,2.30
2023-05-18T01:45:49.667Z,3.30
2023-05-18T01:48:22.801Z,3.95
2023-05-18T01:50:53.235Z,2.53
2023-05-18T01:53:27.724Z,3.17
2023-05-18T01:55:56.673Z,2.08
2023-05-18T01:58:28.909Z,2.25
2023-05-18T02:00:57.545Z,2.30
2023-05-18T02:03:25.724Z,2.60
2023-05-18T02:05:53.879Z,2.25
2023-05-18T02:08:21.969Z,3.17
2023-05-18T02:10:50.082Z,1.85
2023-05-18T02:13:18.163Z,2.75
2023-05-18T02:15:47.683Z,3.08
2023-05-18T02:18:16.596Z,1.33
2023-05-18T02:20:44.734Z,2.50
2023-05-18T02:23:12.858Z,3.08
2023-05-18T02:25:40.975Z,2.40
2023-05-18T02:28:09.093Z,2.00
2023-05-18T02:30:37.295Z,2.30
2023-05-18T02:33:09.185Z,4.55
2023-05-18T02:35:37.356Z,2.38
2023-05-18T02:38:05.588Z,2.97
2023-05-18T02:40:33.703Z,1.90
2023-05-18T02:43:02.048Z,2.60
2023-05-18T02:45:30.516Z,2.47
2023-05-18T02:47:58.818Z,2.17
2023-05-18T02:50:28.324Z,4.15
2023-05-18T02:52:56.519Z,3.30
2023-05-18T02:55:24.605Z,7.60
2023-05-18T02:57:57.161Z,4.40
2023-05-18T03:00:25.484Z,4.35
2023-05-18T03:02:53.827Z,3.55
2023-05-18T03:05:23.866Z,4.35
2023-05-18T03:10:22.910Z,5.32
2023-05-18T03:12:51.025Z,3.88
2023-05-18T03:15:19.647Z,6.88
2023-05-18T03:17:47.856Z,4.20
2023-05-18T03:20:16.117Z,3.10
2023-05-18T03:22:44.256Z,4.22
2023-05-18T03:25:15.085Z,5.45
2023-05-18T03:27:43.229Z,3.30
2023-05-18T03:30:11.933Z,5.00
2023-05-18T03:32:41.564Z,2.08
2023-05-18T03:35:10.523Z,2.60
2023-05-18T03:37:38.720Z,1.73
2023-05-18T03:40:16.447Z,1.98
2023-05-18T03:42:44.622Z,5.00
2023-05-18T03:45:13.370Z,2.72
2023-05-18T03:47:41.954Z,2.65
2023-05-18T03:50:10.870Z,3.22
2023-05-18T03:52:39.034Z,2.67
2023-05-18T03:55:08.074Z,4.22
2023-05-18T03:57:37.780Z,3.53
2023-05-18T04:00:13.161Z,3.08
2023-05-18T04:02:41.435Z,2.33
2023-05-18T04:05:10.620Z,4.90
2023-05-18T04:07:44.112Z,2.53
2023-05-18T04:10:12.656Z,3.75
2023-05-18T04:12:42.309Z,3.50
2023-05-18T04:15:14.390Z,3.85
2023-05-18T04:17:45.499Z,3.72
2023-05-18T04:20:14.799Z,2.72
2023-05-18T04:22:46.607Z,4.87
2023-05-18T04:25:15.153Z,3.10
2023-05-18T04:27:45.604Z,2.85
2023-05-18T04:30:14.783Z,3.13
2023-05-18T04:32:43.769Z,3.78
2023-05-18T04:35:12.829Z,3.27
2023-05-18T04:37:41.642Z,4.20
2023-05-18T04:40:14.119Z,5.40
2023-05-18T04:42:45.593Z,4.65
2023-05-18T04:45:15.911Z,5.50
2023-05-18T04:47:46.437Z,4.22
2023-05-18T04:50:16.390Z,3.67
2023-05-18T04:52:48.734Z,3.42
2023-05-18T04:55:23.153Z,3.78
2023-05-18T04:57:56.571Z,10.02
2023-05-18T05:00:25.939Z,8.27
2023-05-18T05:02:54.307Z,5.23
2023-05-18T05:05:23.277Z,6.57
2023-05-18T05:07:51.859Z,6.65
2023-05-18T05:10:20.142Z,7.20
2023-05-18T05:12:49.512Z,3.65
2023-05-18T05:15:19.440Z,5.63
2023-05-18T05:17:48.485Z,5.55
2023-05-18T05:20:16.801Z,5.90
2023-05-18T05:22:44.993Z,4.95
2023-05-18T05:25:13.341Z,4.05
2023-05-18T05:27:41.725Z,5.43
2023-05-18T05:30:10.695Z,4.05
2023-05-18T05:32:40.225Z,4.88
2023-05-18T05:35:08.893Z,4.85
2023-05-18T05:37:37.154Z,3.90
2023-05-18T05:40:06.786Z,4.60
2023-05-18T05:42:35.011Z,5.13
2023-05-18T05:45:03.191Z,4.75
2023-05-18T05:47:31.310Z,3.17
2023-05-18T05:50:00.892Z,3.92
2023-05-18T05:52:29.782Z,3.60
2023-05-18T05:54:57.924Z,2.80
2023-05-18T05:57:26.042Z,3.67
2023-05-18T05:59:54.265Z,3.60
2023-05-18T06:02:22.425Z,4.10
2023-05-18T06:04:50.579Z,4.03
2023-05-18T06:07:20.067Z,2.70
2023-05-18T06:09:48.713Z,5.03
2023-05-18T06:12:16.851Z,2.92
2023-05-18T06:14:44.980Z,3.53
2023-05-18T06:17:13.108Z,3.50
2023-05-18T06:19:41.200Z,3.08
2023-05-18T06:22:09.352Z,4.43
2023-05-18T06:24:38.881Z,2.58
2023-05-18T06:27:07.218Z,1.95
2023-05-18T06:29:35.369Z,3.75
2023-05-18T06:32:03.731Z,2.25
2023-05-18T06:34:31.900Z,4.43
2023-05-18T06:37:00.162Z,2.38
2023-05-18T06:39:28.556Z,2.47
2023-05-18T06:41:58.131Z,3.25
2023-05-18T06:44:26.492Z,3.08
2023-05-18T06:46:54.734Z,1.75
2023-05-18T06:49:22.852Z,3.55
2023-05-18T06:51:51.053Z,3.40
2023-05-18T06:54:19.222Z,2.63
2023-05-18T06:56:47.490Z,8.35
2023-05-18T06:59:16.988Z,6.57
2023-05-18T07:01:45.116Z,11.00
2023-05-18T07:04:13.541Z,5.97
2023-05-18T07:06:41.750Z,5.85
2023-05-18T07:09:09.893Z,9.45
2023-05-18T07:11:37.988Z,8.15
2023-05-18T07:14:06.129Z,9.30
2023-05-18T07:16:35.839Z,6.18
2023-05-18T07:19:05.056Z,7.78
2023-05-18T07:21:33.284Z,9.57
2023-05-18T07:24:01.544Z,8.15
2023-05-18T07:26:29.832Z,9.63
2023-05-18T07:28:57.960Z,5.53
2023-05-18T07:31:26.135Z,4.97
2023-05-18T07:33:55.674Z,6.63
2023-05-18T07:36:24.182Z,5.80
2023-05-18T07:38:54.988Z,5.80
2023-05-18T07:41:23.719Z,5.75
2023-05-18T07:43:53.136Z,5.95
2023-05-18T07:46:21.642Z,5.93
2023-05-18T07:48:49.923Z,5.88
2023-05-18T07:51:19.439Z,4.95
2023-05-18T07:53:47.601Z,6.70
2023-05-18T07:56:15.734Z,6.82
2023-05-18T07:58:44.663Z,6.20
2023-05-18T08:01:12.861Z,7.03
2023-05-18T08:03:41.401Z,6.60
2023-05-18T08:06:09.601Z,7.32
2023-05-18T08:08:39.117Z,5.18
2023-05-18T08:11:07.195Z,7.25
2023-05-18T08:13:35.327Z,4.75
2023-05-18T08:16:11.820Z,5.15
2023-05-18T08:18:40.859Z,5.07
2023-05-18T08:21:10.224Z,5.05
2023-05-18T08:23:40.850Z,3.85
2023-05-18T08:26:10.499Z,4.38
2023-05-18T08:28:39.661Z,3.40
2023-05-18T08:31:07.937Z,4.50
2023-05-18T08:33:36.147Z,3.83
2023-05-18T08:36:04.723Z,3.78
2023-05-18T08:38:32.899Z,2.40
2023-05-18T08:41:12.614Z,5.22
2023-05-18T08:43:43.517Z,4.78
2023-05-18T08:46:20.754Z,4.20
2023-05-18T08:48:52.458Z,4.25
2023-05-18T08:51:22.213Z,2.63
2023-05-18T08:53:54.738Z,4.00
2023-05-18T08:56:26.612Z,3.72
2023-05-18T08:58:57.539Z,4.95
2023-05-18T09:01:29.309Z,3.88
2023-05-18T09:03:58.689Z,2.35
2023-05-18T09:06:28.476Z,3.92
2023-05-18T09:11:28.851Z,3.35
2023-05-18T09:13:57.029Z,3.58
2023-05-18T09:16:25.373Z,2.25
2023-05-18T09:18:53.836Z,3.20
2023-05-18T09:21:22.003Z,4.75
2023-05-18T09:23:52.523Z,4.20
2023-05-18T09:26:21.095Z,4.50
2023-05-18T09:28:53.970Z,6.03
2023-05-18T09:31:24.762Z,6.10
2023-05-18T09:33:53.870Z,6.20
2023-05-18T09:36:28.482Z,6.93
2023-05-18T09:38:56.612Z,6.28
2023-05-18T09:41:27.972Z,7.85
2023-05-18T09:43:57.489Z,6.50
2023-05-18T09:46:25.699Z,4.15
2023-05-18T09:48:55.359Z,5.75
2023-05-18T09:51:25.542Z,7.60
2023-05-18T09:53:56.490Z,5.65
2023-05-18T09:56:25.772Z,6.88
2023-05-18T09:58:54.079Z,6.18
2023-05-18T10:01:23.742Z,5.72
2023-05-18T10:03:53.313Z,4.93
2023-05-18T10:06:22.594Z,5.95
2023-05-18T10:08:50.688Z,7.43
2023-05-18T10:11:20.079Z,5.13
2023-05-18T10:13:48.634Z,4.53
2023-05-18T10:16:17.132Z,3.55
2023-05-18T10:18:48.461Z,3.40
2023-05-18T10:21:18.493Z,2.47
2023-05-18T10:23:49.244Z,4.05
2023-05-18T10:26:23.906Z,4.63
2023-05-18T10:28:54.488Z,2.72
2023-05-18T10:31:24.107Z,2.55
2023-05-18T10:36:25.619Z,3.60
2023-05-18T10:38:54.670Z,3.38
2023-05-18T10:41:24.295Z,2.47
2023-05-18T10:43:54.092Z,3.00
2023-05-18T10:46:26.748Z,2.55
2023-05-18T10:48:58.527Z,4.28
2023-05-18T10:51:28.726Z,4.18
2023-05-18T10:54:09.893Z,3.65
2023-05-18T10:56:38.060Z,2.63
2023-05-18T10:59:07.602Z,3.58
2023-05-18T11:01:36.337Z,2.88
2023-05-18T11:04:06.566Z,2.60
2023-05-18T11:06:35.453Z,1.65
2023-05-18T11:09:04.379Z,2.23
2023-05-18T11:11:52.320Z,4.53
2023-05-18T11:14:27.372Z,2.80
2023-05-18T11:16:55.811Z,2.75
2023-05-18T11:19:28.010Z,3.60
2023-05-18T11:21:56.153Z,2.00
2023-05-18T11:24:31.051Z,2.42
2023-05-18T11:27:03.497Z,2.20
2023-05-18T11:29:33.495Z,1.88
2023-05-18T11:32:02.645Z,3.00
2023-05-18T11:34:47.789Z,2.00
2023-05-18T11:37:16.840Z,2.25
2023-05-18T11:40:00.313Z,3.70
2023-05-18T11:42:34.965Z,3.50
2023-05-18T11:45:08.185Z,3.80
2023-05-18T11:47:38.027Z,2.00
2023-05-18T11:50:11.921Z,2.20
2023-05-18T11:52:47.758Z,2.05
2023-05-18T11:55:17.611Z,2.08
2023-05-18T11:57:48.933Z,2.03
2023-05-18T12:00:18.446Z,1.80
2023-05-18T12:05:17.144Z,4.67
2023-05-18T12:07:45.702Z,3.13
2023-05-18T12:10:16.192Z,2.65
2023-05-18T12:12:44.976Z,3.58
2023-05-18T12:15:16.871Z,1.93
2023-05-18T12:17:46.731Z,2.05
2023-05-18T12:25:14.296Z,2.40
2023-05-18T12:27:44.001Z,2.83
2023-05-18T12:30:13.890Z,1.98
2023-05-18T12:32:46.243Z,3.25
2023-05-18T12:35:14.478Z,1.58
2023-05-18T12:37:47.839Z,1.95
2023-05-18T12:40:17.845Z,2.50
2023-05-18T12:42:56.451Z,2.65
2023-05-18T12:45:27.729Z,2.87
2023-05-18T12:47:56.572Z,3.90
2023-05-18T12:50:26.644Z,2.10
2023-05-18T12:52:57.362Z,1.65
2023-05-18T12:55:26.584Z,2.22
2023-05-18T12:58:02.521Z,1.98
2023-05-18T13:00:33.832Z,1.40
2023-05-18T13:03:08.491Z,2.85
2023-05-18T13:05:38.290Z,1.80
2023-05-18T13:08:07.976Z,2.70
2023-05-18T13:10:36.206Z,2.03
2023-05-18T13:13:05.126Z,2.40
2023-05-18T13:15:38.323Z,3.53
2023-05-18T13:18:10.018Z,3.92
2023-05-18T13:20:41.668Z,5.35
2023-05-18T13:23:12.688Z,5.05
2023-05-18T13:25:41.109Z,5.97
2023-05-18T13:28:11.226Z,6.18
2023-05-18T13:30:40.929Z,5.45
2023-05-18T13:33:09.598Z,3.85
2023-05-18T13:35:37.860Z,5.83
2023-05-18T13:38:06.535Z,6.30
2023-05-18T13:40:36.132Z,6.13
2023-05-18T13:43:06.065Z,5.70
2023-05-18T13:45:36.031Z,5.65
2023-05-18T13:48:09.552Z,5.07
2023-05-18T13:50:38.317Z,7.78
2023-05-18T13:53:06.616Z,3.38
2023-05-18T13:55:37.003Z,8.07
2023-05-18T13:58:05.390Z,5.18
2023-05-18T14:00:34.184Z,6.82
2023-05-18T14:03:02.818Z,5.25
2023-05-18T14:05:31.117Z,3.33
2023-05-18T14:07:59.228Z,2.83
2023-05-18T14:10:27.360Z,5.63
2023-05-18T14:12:56.873Z,3.95
2023-05-18T14:15:25.157Z,4.38
2023-05-18T14:17:53.328Z,3.15
2023-05-18T14:20:21.462Z,4.35
2023-05-18T14:22:49.750Z,4.22
2023-05-18T14:25:18.096Z,2.72
2023-05-18T14:27:46.218Z,2.70
2023-05-18T14:30:15.927Z,2.92
2023-05-18T14:32:44.044Z,3.45
2023-05-18T14:35:12.244Z,2.90
2023-05-18T14:37:40.455Z,2.83
2023-05-18T14:40:09.774Z,3.30
2023-05-18T14:45:06.616Z,4.53
2023-05-18T14:47:36.137Z,3.78
2023-05-18T14:50:04.381Z,3.67
2023-05-18T14:52:32.518Z,2.50
2023-05-18T14:55:00.661Z,4.43
2023-05-18T14:57:28.867Z,5.47
2023-05-18T14:59:57.032Z,3.83
2023-05-18T15:02:25.276Z,3.85
2023-05-18T15:04:54.840Z,4.63
2023-05-18T15:07:23.157Z,3.88
2023-05-18T15:09:51.378Z,4.45
2023-05-18T15:12:19.781Z,4.65
2023-05-18T15:14:47.923Z,2.50
2023-05-18T15:17:16.145Z,3.30
2023-05-18T15:19:44.272Z,5.90
2023-05-18T15:22:13.845Z,3.55
2023-05-18T15:24:41.953Z,5.38
2023-05-18T15:27:10.575Z,5.97
2023-05-18T15:29:38.734Z,3.83
2023-05-18T15:32:07.883Z,3.65
2023-05-18T15:37:04.120Z,3.17
2023-05-18T15:39:33.614Z,4.32
2023-05-18T15:42:01.758Z,4.20
2023-05-18T15:44:29.975Z,3.80
2023-05-18T15:46:58.181Z,3.90
2023-05-18T15:49:26.386Z,4.38
2023-05-18T15:51:54.497Z,4.40
2023-05-18T15:54:22.731Z,4.00
2023-05-18T15:56:52.656Z,8.23
2023-05-18T15:59:20.936Z,10.98
2023-05-18T16:01:49.134Z,38.13
2023-05-18T16:04:17.341Z,20.20
2023-05-18T16:06:45.510Z,5.88
2023-05-18T16:09:13.798Z,5.15
2023-05-18T16:11:41.930Z,5.38
2023-05-18T16:14:11.458Z,3.45
2023-05-18T16:16:40.012Z,5.65
2023-05-18T16:19:09.413Z,4.35
2023-05-18T16:21:37.591Z,5.20
2023-05-18T16:24:06.645Z,7.75
2023-05-18T16:26:34.885Z,5.10
2023-05-18T16:29:04.021Z,6.53
2023-05-18T16:31:33.735Z,3.72
2023-05-18T16:34:01.888Z,3.10
2023-05-18T16:36:31.427Z,3.35
2023-05-18T16:38:59.549Z,4.78
2023-05-18T16:41:27.664Z,4.93
2023-05-18T16:43:55.947Z,3.90
2023-05-18T16:46:24.527Z,6.05
2023-05-18T16:48:54.018Z,4.03
2023-05-18T16:53:52.221Z,4.15
2023-05-18T16:56:22.299Z,4.97
2023-05-18T16:58:52.444Z,5.35
2023-05-18T17:01:28.211Z,6.55
2023-05-18T17:03:58.809Z,3.85
2023-05-18T17:06:27.475Z,6.75
2023-05-18T17:08:58.519Z,6.38
2023-05-18T17:11:27.718Z,2.75
2023-05-18T17:13:57.459Z,2.90
2023-05-18T17:16:26.762Z,6.78
2023-05-18T17:18:56.121Z,4.10
2023-05-18T17:21:28.212Z,5.03
2023-05-18T17:23:56.549Z,3.80
2023-05-18T17:26:25.466Z,7.60
2023-05-18T17:28:54.140Z,4.78
2023-05-18T17:31:22.324Z,5.82
2023-05-18T17:33:50.469Z,4.63
2023-05-18T17:36:18.744Z,6.68
2023-05-18T17:38:48.257Z,4.35
2023-05-18T17:43:44.402Z,5.38
2023-05-18T17:46:12.731Z,4.57
2023-05-18T17:48:41.044Z,4.20
2023-05-18T17:51:09.175Z,4.65
2023-05-18T17:53:41.929Z,5.90
2023-05-18T17:56:12.726Z,4.45
2023-05-18T17:58:40.844Z,5.43
2023-05-18T18:01:09.377Z,6.55
2023-05-18T18:03:38.094Z,7.35
2023-05-18T18:06:06.939Z,4.32
2023-05-18T18:08:36.721Z,4.97
2023-05-18T18:11:07.649Z,5.35
2023-05-18T18:13:38.671Z,4.40
2023-05-18T18:18:36.680Z,4.32
2023-05-18T18:21:05.524Z,4.63
2023-05-18T18:23:33.890Z,5.60
2023-05-18T18:26:02.707Z,6.35
2023-05-18T18:28:31.013Z,5.23
2023-05-18T18:31:01.002Z,5.90
2023-05-18T18:33:29.243Z,5.07
2023-05-18T18:35:58.401Z,4.88
2023-05-18T18:38:28.832Z,3.58
2023-05-18T18:41:01.440Z,4.78
2023-05-18T18:43:30.028Z,3.80
2023-05-18T18:45:58.276Z,5.47
2023-05-18T18:48:28.204Z,5.55
2023-05-18T18:50:56.802Z,4.20
2023-05-18T18:53:24.980Z,4.35
2023-05-18T18:55:53.131Z,4.55
2023-05-18T18:58:24.155Z,5.57
2023-05-18T19:00:52.364Z,4.22
2023-05-18T19:03:21.845Z,5.50
2023-05-18T19:05:52.089Z,3.90
2023-05-18T19:08:20.188Z,3.22
2023-05-18T19:10:48.321Z,2.75
2023-05-18T19:13:16.438Z,3.50
2023-05-18T19:15:45.495Z,5.22
2023-05-18T19:18:13.732Z,4.38
2023-05-18T19:20:41.860Z,3.30
2023-05-18T19:23:11.442Z,3.33
2023-05-18T19:25:39.621Z,2.47
2023-05-18T19:28:07.743Z,4.53
2023-05-18T19:30:35.916Z,2.90
2023-05-18T19:33:05.113Z,3.53
2023-05-18T19:35:33.883Z,2.72
2023-05-18T19:38:03.122Z,4.30
2023-05-18T19:40:32.686Z,3.35
2023-05-18T19:43:01.634Z,3.45
2023-05-18T19:45:30.233Z,4.30
2023-05-18T19:47:58.636Z,2.50
2023-05-18T19:50:26.779Z,2.08
2023-05-18T19:52:55.108Z,3.88
2023-05-18T19:55:23.241Z,2.92
2023-05-18T19:57:52.772Z,3.60
2023-05-18T20:00:20.870Z,4.25
2023-05-18T20:02:49.060Z,5.32
2023-05-18T20:05:18.867Z,3.33
2023-05-18T20:07:47.150Z,4.35
2023-05-18T20:10:15.757Z,3.92
2023-05-18T20:12:43.878Z,3.65
2023-05-18T20:15:13.713Z,3.05
2023-05-18T20:17:42.735Z,2.78
2023-05-18T20:20:12.269Z,2.58
2023-05-18T20:22:40.869Z,3.70
2023-05-18T20:25:09.751Z,2.45
2023-05-18T20:27:38.079Z,3.80
2023-05-18T20:30:07.319Z,4.82
2023-05-18T20:32:36.869Z,4.18
2023-05-18T20:35:05.402Z,2.28
2023-05-18T20:37:34.534Z,4.07
2023-05-18T20:40:08.855Z,2.95
2023-05-18T20:42:40.340Z,4.03
2023-05-18T20:45:09.309Z,4.35
2023-05-18T20:47:38.831Z,2.50
2023-05-18T20:50:09.186Z,1.65
2023-05-18T20:52:37.324Z,3.97
2023-05-18T20:55:05.923Z,3.53
2023-05-18T20:57:34.787Z,2.25
2023-05-18T21:00:02.976Z,4.47
2023-05-18T21:02:33.173Z,4.60
2023-05-18T21:05:04.438Z,3.45
2023-05-18T21:07:33.279Z,2.28
2023-05-18T21:10:02.353Z,2.50
2023-05-18T21:12:30.486Z,3.67
2023-05-18T21:14:58.619Z,4.55
2023-05-18T21:17:27.020Z,3.70
2023-05-18T21:19:55.193Z,4.47
2023-05-18T21:22:24.792Z,3.78
2023-05-18T21:24:52.873Z,3.40
2023-05-18T21:27:20.989Z,2.25
2023-05-18T21:29:49.106Z,2.25
2023-05-18T21:32:17.356Z,3.58
2023-05-18T21:34:45.565Z,4.28
2023-05-18T21:37:13.955Z,4.18
2023-05-18T21:39:44.085Z,2.55
2023-05-18T21:42:12.221Z,3.40
2023-05-18T21:44:40.327Z,3.17
2023-05-18T21:47:08.508Z,2.85
2023-05-18T21:49:36.594Z,3.38
2023-05-18T21:52:04.899Z,1.77
2023-05-18T21:54:33.598Z,1.98
2023-05-18T21:57:03.445Z,1.73
2023-05-18T22:01:59.612Z,2.63
2023-05-18T22:04:27.769Z,2.28
2023-05-18T22:06:55.909Z,1.92
2023-05-18T22:09:24.088Z,2.45
2023-05-18T22:11:52.208Z,3.45
2023-05-18T22:14:21.735Z,2.42
2023-05-18T22:16:49.926Z,4.45
2023-05-18T22:19:18.188Z,2.53
2023-05-18T22:21:46.343Z,2.42
2023-05-18T22:24:14.465Z,2.17
2023-05-18T22:26:43.291Z,3.28
2023-05-18T22:29:11.680Z,2.63
2023-05-18T22:31:41.293Z,2.08
2023-05-18T22:34:09.458Z,2.38
2023-05-18T22:36:38.165Z,1.88
2023-05-18T22:39:06.313Z,1.75
2023-05-18T22:41:34.447Z,1.92
2023-05-18T22:44:02.685Z,2.50
2023-05-18T22:46:30.874Z,2.00
2023-05-18T22:49:00.357Z,1.40
2023-05-18T22:51:28.459Z,1.58
2023-05-18T22:53:56.725Z,1.50
2023-05-18T22:56:24.890Z,2.15
2023-05-18T22:58:53.013Z,1.30
2023-05-18T23:01:21.185Z,1.30
2023-05-18T23:03:49.310Z,1.70
2023-05-18T23:06:22.156Z,4.32
2023-05-18T23:08:50.529Z,2.65
2023-05-18T23:11:19.919Z,2.65
2023-05-18T23:13:48.347Z,1.67
2023-05-18T23:16:16.592Z,3.22
2023-05-18T23:18:46.172Z,1.38
2023-05-18T23:21:14.672Z,2.65
2023-05-18T23:23:45.718Z,1.95
2023-05-18T23:26:13.902Z,2.60
2023-05-18T23:28:42.020Z,2.35
2023-05-18T23:31:10.115Z,3.65
2023-05-18T23:33:38.869Z,4.25
2023-05-18T23:36:08.318Z,2.50
2023-05-18T23:38:37.940Z,2.90
2023-05-18T23:41:08.280Z,1.35
2023-05-18T23:43:36.949Z,1.67
2023-05-18T23:46:06.092Z,1.83
2023-05-18T23:48:34.777Z,1.40
2023-05-18T23:51:05.761Z,2.88
2023-05-18T23:53:34.148Z,2.20
2023-05-18T23:56:03.833Z,1.92
2023-05-18T23:58:33.848Z,1.58
